DLH376 KLAX-EDDF
Flight info
| Callsign | DLH376 |
|---|---|
| Flight time | N/A |
| Altitude | 37000 |
| Route | OSHNN1 BEALE Q842 WINEN DCT OCS J202 DDY DCT TIMMR DCT HML DCT 55N090W 60N080W DCT TEFFO/N0462F390 DCT BERUS/M082F390 DCT EMBOK DCT 63N050W 6230N04000W 61N030W 59N020W 58N015W DCT GOMUP/N0469F390 DCT GINGA DCT BRUCE DCT CLYDE DCT GOW DCT GOSAM DCT TLA DCT NATEB DCT ROXAT DCT GODOS DCT AMGOD DCT SOGPO DCT DIXAT DIXAT1B |
| Aircraft | A333/H-SDE3GHIJ2J3J5M1RVWXY/LB2D1 |
Departure
| Time | 2026-04-25 21:06 |
|---|---|
| Airport | Los Angeles International Airport (KLAX) |
Arrival
| Time | N/A |
|---|---|
| Airport | Frankfurt Main Airport (EDDF) |
| Time | Latitude | Longitude | Altitude | Speed | Heading |
|---|---|---|---|---|---|
| 2026-04-25 20:28 | 33.94474 | -118.41447 | 124 ft | 0 kts | 264° |
| 2026-04-25 20:47 | 33.94474 | -118.41444 | 129 ft | 10 kts | 264° |
| 2026-04-25 20:47 | 33.94476 | -118.41423 | 127 ft | 12 kts | 264° |
| 2026-04-25 20:47 | 33.94478 | -118.41399 | 124 ft | 12 kts | 257° |
| 2026-04-25 20:48 | 33.94484 | -118.41377 | 124 ft | 14 kts | 233° |
| 2026-04-25 20:48 | 33.94497 | -118.41361 | 124 ft | 22 kts | 201° |
| 2026-04-25 20:48 | 33.94513 | -118.41357 | 124 ft | 25 kts | 173° |
| 2026-04-25 20:48 | 33.94526 | -118.41359 | 125 ft | 25 kts | 173° |
| 2026-04-25 20:49 | 33.94543 | -118.41362 | 124 ft | 26 kts | 173° |
| 2026-04-25 20:49 | 33.94545 | -118.41362 | 127 ft | 44 kts | 173° |
| 2026-04-25 20:52 | 33.94544 | -118.41362 | 124 ft | 0 kts | 173° |
| 2026-04-25 20:52 | 33.94538 | -118.41361 | 124 ft | 1 kts | 173° |
| 2026-04-25 20:52 | 33.94531 | -118.41360 | 124 ft | 1 kts | 173° |
| 2026-04-25 20:53 | 33.94513 | -118.41357 | 124 ft | 8 kts | 173° |
| 2026-04-25 20:53 | 33.94424 | -118.41344 | 127 ft | 14 kts | 174° |
| 2026-04-25 20:53 | 33.94330 | -118.41331 | 125 ft | 13 kts | 174° |
| 2026-04-25 20:53 | 33.94251 | -118.41320 | 126 ft | 10 kts | 173° |
| 2026-04-25 20:54 | 33.94181 | -118.41310 | 126 ft | 10 kts | 173° |
| 2026-04-25 20:54 | 33.94114 | -118.41299 | 127 ft | 9 kts | 173° |
| 2026-04-25 20:54 | 33.94048 | -118.41289 | 127 ft | 11 kts | 172° |
| 2026-04-25 20:54 | 33.93948 | -118.41274 | 127 ft | 15 kts | 173° |
| 2026-04-25 20:55 | 33.93847 | -118.41259 | 127 ft | 14 kts | 171° |
| 2026-04-25 20:55 | 33.93756 | -118.41279 | 124 ft | 13 kts | 229° |
| 2026-04-25 20:55 | 33.93736 | -118.41381 | 125 ft | 13 kts | 263° |
| 2026-04-25 20:55 | 33.93729 | -118.41459 | 126 ft | 0 kts | 263° |
| 2026-04-25 20:56 | 33.93729 | -118.41460 | 126 ft | 0 kts | 264° |
| 2026-04-25 20:56 | 33.93729 | -118.41463 | 126 ft | 0 kts | 269° |
| 2026-04-25 20:56 | 33.93730 | -118.41465 | 126 ft | 2 kts | 281° |
| 2026-04-25 20:56 | 33.93762 | -118.41497 | 126 ft | 3 kts | 355° |
| 2026-04-25 20:57 | 33.93775 | -118.41495 | 126 ft | 3 kts | 8° |
| 2026-04-25 20:57 | 33.93804 | -118.41471 | 125 ft | 8 kts | 59° |
| 2026-04-25 20:57 | 33.93799 | -118.41418 | 127 ft | 4 kts | 126° |
| 2026-04-25 20:57 | 33.93810 | -118.41379 | 127 ft | 14 kts | 66° |
| 2026-04-25 20:58 | 33.93809 | -118.41278 | 125 ft | 6 kts | 139° |
| 2026-04-25 20:58 | 33.93777 | -118.41240 | 125 ft | 10 kts | 128° |
| 2026-04-25 20:58 | 33.93763 | -118.41121 | 126 ft | 16 kts | 88° |
| 2026-04-25 20:58 | 33.93777 | -118.40991 | 129 ft | 16 kts | 83° |
| 2026-04-25 20:59 | 33.93790 | -118.40860 | 129 ft | 16 kts | 82° |
| 2026-04-25 20:59 | 33.93804 | -118.40731 | 127 ft | 16 kts | 83° |
| 2026-04-25 20:59 | 33.93817 | -118.40603 | 127 ft | 15 kts | 83° |
| 2026-04-25 20:59 | 33.93829 | -118.40475 | 126 ft | 15 kts | 83° |
| 2026-04-25 21:00 | 33.93843 | -118.40349 | 129 ft | 15 kts | 83° |
| 2026-04-25 21:00 | 33.93852 | -118.40262 | 125 ft | 18 kts | 83° |
| 2026-04-25 21:00 | 33.93895 | -118.39818 | 125 ft | 24 kts | 84° |
| 2026-04-25 21:01 | 33.93917 | -118.39625 | 129 ft | 23 kts | 85° |
| 2026-04-25 21:01 | 33.93935 | -118.39440 | 125 ft | 22 kts | 83° |
| 2026-04-25 21:01 | 33.93954 | -118.39261 | 124 ft | 21 kts | 83° |
| 2026-04-25 21:01 | 33.93972 | -118.39084 | 128 ft | 21 kts | 83° |
| 2026-04-25 21:02 | 33.93990 | -118.38911 | 129 ft | 21 kts | 82° |
| 2026-04-25 21:02 | 33.94007 | -118.38741 | 126 ft | 20 kts | 83° |
| 2026-04-25 21:02 | 33.94025 | -118.38572 | 124 ft | 20 kts | 83° |
| 2026-04-25 21:02 | 33.94041 | -118.38409 | 124 ft | 11 kts | 83° |
| 2026-04-25 21:03 | 33.94042 | -118.38403 | 125 ft | 0 kts | 83° |
| 2026-04-25 21:03 | 33.94042 | -118.38394 | 124 ft | 3 kts | 83° |
| 2026-04-25 21:03 | 33.94042 | -118.38365 | 124 ft | 5 kts | 101° |
| 2026-04-25 21:03 | 33.94025 | -118.38342 | 127 ft | 2 kts | 154° |
| 2026-04-25 21:04 | 33.94008 | -118.38336 | 125 ft | 3 kts | 165° |
| 2026-04-25 21:04 | 33.94001 | -118.38335 | 126 ft | 0 kts | 169° |
| 2026-04-25 21:04 | 33.93996 | -118.38334 | 125 ft | 4 kts | 169° |
| 2026-04-25 21:05 | 33.93952 | -118.38369 | 125 ft | 9 kts | 243° |
| 2026-04-25 21:05 | 33.93941 | -118.38437 | 124 ft | 8 kts | 264° |
| 2026-04-25 21:05 | 33.93926 | -118.38598 | 125 ft | 43 kts | 263° |
| 2026-04-25 21:05 | 33.93863 | -118.39194 | 126 ft | 100 kts | 263° |
| 2026-04-25 21:06 | 33.93756 | -118.40242 | 127 ft | 151 kts | 264° |
| 2026-04-25 21:06 | 33.93605 | -118.41596 | 480 ft | 172 kts | 258° |
| 2026-04-25 21:06 | 33.93456 | -118.43125 | 985 ft | 196 kts | 263° |
| 2026-04-25 21:06 | 33.93363 | -118.44251 | 1324 ft | 212 kts | 261° |
| 2026-04-25 21:07 | 33.92692 | -118.46606 | 1717 ft | 235 kts | 236° |
| 2026-04-25 21:07 | 33.91705 | -118.48205 | 2267 ft | 240 kts | 232° |
| 2026-04-25 21:07 | 33.90633 | -118.49753 | 2873 ft | 244 kts | 230° |
| 2026-04-25 21:07 | 33.89515 | -118.51326 | 3416 ft | 250 kts | 229° |
| 2026-04-25 21:08 | 33.88375 | -118.52933 | 4018 ft | 254 kts | 230° |
| 2026-04-25 21:08 | 33.87185 | -118.54516 | 4579 ft | 256 kts | 222° |
| 2026-04-25 21:08 | 33.85678 | -118.55659 | 4792 ft | 260 kts | 199° |
| 2026-04-25 21:08 | 33.83889 | -118.55913 | 4816 ft | 262 kts | 175° |
| 2026-04-25 21:09 | 33.80303 | -118.55014 | 5395 ft | 267 kts | 168° |
| 2026-04-25 21:09 | 33.78482 | -118.54492 | 6030 ft | 272 kts | 169° |
| 2026-04-25 21:09 | 33.76628 | -118.53971 | 6660 ft | 275 kts | 170° |
| 2026-04-25 21:10 | 33.74756 | -118.53454 | 7327 ft | 276 kts | 169° |
| 2026-04-25 21:10 | 33.72882 | -118.52944 | 8047 ft | 276 kts | 169° |
| 2026-04-25 21:10 | 33.71046 | -118.52222 | 8734 ft | 281 kts | 155° |
| 2026-04-25 21:10 | 33.69526 | -118.50725 | 9399 ft | 290 kts | 129° |
| 2026-04-25 21:11 | 33.68590 | -118.48546 | 10042 ft | 299 kts | 114° |
| 2026-04-25 21:11 | 33.67874 | -118.46137 | 10545 ft | 315 kts | 112° |
| 2026-04-25 21:11 | 33.67145 | -118.43582 | 10979 ft | 332 kts | 113° |
| 2026-04-25 21:11 | 33.66374 | -118.40913 | 11360 ft | 348 kts | 113° |
| 2026-04-25 21:12 | 33.65564 | -118.38138 | 11822 ft | 363 kts | 114° |
| 2026-04-25 21:12 | 33.64759 | -118.35183 | 12230 ft | 383 kts | 109° |
| 2026-04-25 21:12 | 33.64411 | -118.31932 | 12505 ft | 403 kts | 96° |
| 2026-04-25 21:12 | 33.64381 | -118.29634 | 12734 ft | 411 kts | 94° |
| 2026-04-25 21:13 | 33.64411 | -118.25042 | 13306 ft | 420 kts | 93° |
| 2026-04-25 21:13 | 33.64664 | -118.21512 | 13754 ft | 431 kts | 83° |
| 2026-04-25 21:13 | 33.65526 | -118.18023 | 14169 ft | 441 kts | 68° |
| 2026-04-25 21:13 | 33.67070 | -118.14825 | 14689 ft | 445 kts | 54° |
| 2026-04-25 21:14 | 33.69032 | -118.11931 | 15253 ft | 448 kts | 49° |
| 2026-04-25 21:14 | 33.71146 | -118.09173 | 15822 ft | 451 kts | 46° |
| 2026-04-25 21:14 | 33.73339 | -118.06468 | 16419 ft | 454 kts | 45° |
| 2026-04-25 21:14 | 33.75564 | -118.03765 | 16931 ft | 456 kts | 45° |
| 2026-04-25 21:15 | 33.77795 | -118.01043 | 17443 ft | 458 kts | 45° |
| 2026-04-25 21:15 | 33.80028 | -117.98286 | 17874 ft | 461 kts | 45° |
| 2026-04-25 21:15 | 33.82258 | -117.95500 | 18335 ft | 464 kts | 46° |
| 2026-04-25 21:15 | 33.84497 | -117.92679 | 18705 ft | 468 kts | 46° |
| 2026-04-25 21:16 | 33.86747 | -117.89827 | 19050 ft | 471 kts | 46° |
| 2026-04-25 21:16 | 33.89008 | -117.86953 | 19412 ft | 475 kts | 46° |
| 2026-04-25 21:16 | 33.91283 | -117.84057 | 19826 ft | 477 kts | 46° |
| 2026-04-25 21:16 | 33.93562 | -117.81153 | 20205 ft | 479 kts | 46° |
| 2026-04-25 21:17 | 33.95863 | -117.78222 | 20538 ft | 483 kts | 46° |
| 2026-04-25 21:17 | 33.98180 | -117.75267 | 20890 ft | 486 kts | 46° |
| 2026-04-25 21:17 | 34.00510 | -117.72295 | 21215 ft | 490 kts | 46° |
| 2026-04-25 21:17 | 34.02857 | -117.69299 | 21550 ft | 493 kts | 46° |
| 2026-04-25 21:18 | 34.05218 | -117.66285 | 21884 ft | 496 kts | 46° |
| 2026-04-25 21:18 | 34.07593 | -117.63249 | 22226 ft | 499 kts | 46° |
| 2026-04-25 21:18 | 34.09982 | -117.60192 | 22561 ft | 503 kts | 46° |
| 2026-04-25 21:18 | 34.12386 | -117.57114 | 22897 ft | 506 kts | 46° |
| 2026-04-25 21:19 | 34.14810 | -117.54007 | 23251 ft | 509 kts | 46° |
| 2026-04-25 21:19 | 34.17245 | -117.50884 | 23584 ft | 513 kts | 46° |
| 2026-04-25 21:19 | 34.19695 | -117.47739 | 23872 ft | 515 kts | 46° |
| 2026-04-25 21:19 | 34.22150 | -117.44583 | 24206 ft | 515 kts | 46° |